AirNav   Duncan Aviation - Near you to keep you flying
 
 1136 users online  

XS62 Stahl Airport
Gainesville, Texas, USA

GOING TO GAINESVILLE?


FAA INFORMATION EFFECTIVE 19 MAY 2022

Location

FAA Identifier: XS62
Lat/Long: 33-34-08.1900N 097-11-26.0800W
33-34.136500N 097-11.434667W
33.5689417,-97.1905778
(estimated)
Elevation: 820 ft. / 250 m (estimated)
From city: 5 miles E of GAINESVILLE, TX
Time zone: UTC -5 (UTC -6 during Standard Time)
Zip code: 76250

Airport Operations

Airport use: Private use. Permission required prior to landing
Activation date: 08/2011
Control tower: no
ARTCC: FORT WORTH CENTER
FSS: FORT WORTH FLIGHT SERVICE STATION
Attendance: UNATNDD
Segmented circle: no

Airport Communications

WX AWOS-3 at GLE (5 nm N): 118.375 (940-612-3549)

Nearby radio navigation aids

VOR radial/distance  VOR name  Freq  Var
UKWr080/31.6BOWIE VORTAC117.1506E
ADMr176/38.6ARDMORE VORTAC116.7006E

 
NDB name  Hdg/Dist  Freq  Var  ID
DENISON233/30.334106EDNI -.. -. ..

Airport Services

Runway Information

Runway 16/34

Dimensions: 3000 x 100 ft. / 914 x 30 m
Surface: turf
RUNWAY 16  RUNWAY 34
Traffic pattern: leftright

Airport Ownership and Management from official FAA records

Ownership: Privately-owned
Owner: RICHARD J. STAHL
1401 CR 2070
GAINESVILLE, TX 76240
Phone 940-367-2183
Manager: RICHARD J. STAHL
1401 CR 2070
GAINESVILLE, TX 76240
Phone 940-367-2183

Additional Remarks

FOR CD CTC FORT WORTH ARTCC AT 817-858-7584.

Instrument Procedures

There are no published instrument procedures at XS62.

Some nearby airports with instrument procedures:

KGLE - Gainesville Municipal Airport (5 nm N)
KDTO - Denton Enterprise Airport (22 nm S)
KLUD - Decatur Municipal Airport (27 nm SW)
KGYI - North Texas Regional Airport/Perrin Field (27 nm E)
0F2 - Bowie Municipal Airport (29 nm W)
 
Loc | Ops | Rwys | IFR | FBO | Links
Com | Nav | Svcs | Stats | Notes

City of Fort Worth
 
Aerial photo
No photo
 
Airport distance calculator
Flying to Stahl Airport? Find the distance to fly.

From to XS62

Sunrise and sunset
Times for 27-May-2022
 Local
(UTC-5)
 Zulu
(UTC)
Morning civil twilight05:5410:54
Sunrise06:2211:22
Sunset20:2901:29
Evening civil twilight20:5801:58

Current date and time
Zulu (UTC)  27-May-2022 23:15:30
Local (UTC-5)  27-May-2022 18:15:30
 
METAR
KGLE 
5nm N 
272255Z AUTO 16005KT 10SM CLR 29/11 A2998 RMK AO2 T02890110 PWINO
TAF
KAFW 
37nm S 
272051Z 2721/2818 12005KT P6SM SKC FM281600 17017G27KT P6SM SKC
KDFW 
41nm S 
272051Z 2721/2824 12005KT P6SM SKC FM281600 17017G27KT P6SM SKC
KFTW 
45nm S 
272051Z 2721/2818 12005KT P6SM SKC FM281600 17017G27KT P6SM SKC
NOTAMs
Click for the latest NOTAMs
NOTAMs are issued by the DoD/FAA and will open in a separate window not controlled by AirNav.

 

 
 

Would you like to see your business listed on this page?

 If your business provides an interesting product or service to pilots, flight crews, aircraft, or users of the Stahl Airport, you should consider listing it here.  To start the listing process, click on the button below
 
Add a business
 

Other Pages about Stahl Airport

Update a link
 
Copyright © AirNav, LLC. All rights reserved. Privacy Policy  Contact